createdAt,value
2022-12-03T00:00:25.852Z,102638.09
2022-12-03T00:02:52.347Z,102634.56
2022-12-03T00:05:18.974Z,102631.88
2022-12-03T00:07:45.512Z,102635.44
2022-12-03T00:10:12.520Z,102628.31
2022-12-03T00:12:38.873Z,102620.34
2022-12-03T00:15:07.125Z,102628.31
2022-12-03T00:17:33.578Z,102615.91
2022-12-03T00:20:00.161Z,102618.56
2022-12-03T00:22:26.820Z,102615.00
2022-12-03T00:24:53.629Z,102613.25
2022-12-03T00:27:20.223Z,102618.56
2022-12-03T00:29:46.611Z,102622.09
2022-12-03T00:32:14.093Z,102614.13
2022-12-03T00:34:40.506Z,102603.47
2022-12-03T00:37:06.994Z,102612.34
2022-12-03T00:39:33.389Z,102612.34
2022-12-03T00:41:59.722Z,102595.47
2022-12-03T00:44:26.257Z,102597.25
2022-12-03T00:46:52.706Z,102604.31
2022-12-03T00:49:19.094Z,102604.31
2022-12-03T00:51:45.482Z,102594.53
2022-12-03T00:54:12.040Z,102596.34
2022-12-03T00:56:38.431Z,102593.66
2022-12-03T00:59:04.901Z,102591.91
2022-12-03T01:01:31.326Z,102591.00
2022-12-03T01:03:57.798Z,102586.56
2022-12-03T01:06:24.327Z,102584.78
2022-12-03T01:08:50.712Z,102578.56
2022-12-03T01:11:35.737Z,102578.59
2022-12-03T01:14:02.066Z,102575.91
2022-12-03T01:16:28.575Z,102571.44
2022-12-03T01:18:55.153Z,102575.88
2022-12-03T01:21:21.595Z,102576.75
2022-12-03T01:23:48.000Z,102573.22
2022-12-03T01:26:15.430Z,102569.66
2022-12-03T01:28:42.135Z,102577.66
2022-12-03T01:31:27.475Z,102584.75
2022-12-03T01:33:53.962Z,102575.88
2022-12-03T01:36:20.323Z,102579.44
2022-12-03T01:38:48.576Z,102579.44
2022-12-03T01:41:17.614Z,102574.13
2022-12-03T01:43:44.397Z,102559.06
2022-12-03T01:46:16.308Z,102555.50
2022-12-03T01:48:42.896Z,102559.03
2022-12-03T01:51:09.360Z,102557.28
2022-12-03T01:53:35.788Z,102559.97
2022-12-03T01:56:02.179Z,102551.97
2022-12-03T01:58:29.710Z,102549.31
2022-12-03T02:00:58.407Z,102545.78
2022-12-03T02:03:26.186Z,102539.53
2022-12-03T02:05:53.212Z,102539.56
2022-12-03T02:08:34.536Z,102543.97
2022-12-03T02:11:13.187Z,102539.53
2022-12-03T02:13:39.981Z,102541.28
2022-12-03T02:16:06.735Z,102535.97
2022-12-03T02:18:33.875Z,102537.72
2022-12-03T02:21:15.830Z,102535.06
2022-12-03T02:23:51.341Z,102526.19
2022-12-03T02:26:18.067Z,102538.63
2022-12-03T02:28:44.592Z,102528.81
2022-12-03T02:31:11.205Z,102529.72
2022-12-03T02:33:38.076Z,102526.16
2022-12-03T02:36:04.855Z,102527.94
2022-12-03T02:38:34.183Z,102519.97
2022-12-03T02:41:06.972Z,102527.06
2022-12-03T02:43:33.480Z,102526.19
2022-12-03T02:46:02.743Z,102524.38
2022-12-03T02:48:33.343Z,102527.06
2022-12-03T02:51:03.594Z,102519.97
2022-12-03T02:53:36.307Z,102530.63
2022-12-03T02:56:03.803Z,102519.97
2022-12-03T02:58:32.619Z,102519.94
2022-12-03T03:01:01.568Z,102519.97
2022-12-03T03:03:30.450Z,102513.75
2022-12-03T03:05:58.161Z,102516.41
2022-12-03T03:08:25.635Z,102521.75
2022-12-03T03:10:52.513Z,102519.09
2022-12-03T03:13:21.316Z,102518.22
2022-12-03T03:15:48.038Z,102508.44
2022-12-03T03:18:15.771Z,102512.91
2022-12-03T03:20:42.564Z,102511.09
2022-12-03T03:23:11.758Z,102513.75
2022-12-03T03:25:44.005Z,102513.72
2022-12-03T03:28:11.760Z,102505.72
2022-12-03T03:30:40.243Z,102506.59
2022-12-03T03:33:07.719Z,102506.59
2022-12-03T03:35:34.959Z,102501.25
2022-12-03T03:38:01.606Z,102506.56
2022-12-03T03:40:28.667Z,102496.78
2022-12-03T03:42:55.997Z,102502.09
2022-12-03T03:45:27.372Z,102494.97
2022-12-03T03:47:57.488Z,102501.19
2022-12-03T03:50:24.670Z,102502.94
2022-12-03T03:52:51.524Z,102498.53
2022-12-03T03:55:20.271Z,102492.28
2022-12-03T03:57:48.240Z,102492.31
2022-12-03T04:00:15.391Z,102486.09
2022-12-03T04:02:41.941Z,102495.81
2022-12-03T04:05:15.806Z,102486.94
2022-12-03T04:07:42.212Z,102486.03
2022-12-03T04:10:38.545Z,102486.91
2022-12-03T04:13:05.112Z,102486.03
2022-12-03T04:15:32.066Z,102477.13
2022-12-03T04:18:17.481Z,102474.44
2022-12-03T04:20:43.935Z,102481.56
2022-12-03T04:23:10.412Z,102487.75
2022-12-03T04:25:55.241Z,102484.19
2022-12-03T04:28:40.574Z,102485.94
2022-12-03T04:31:25.957Z,102476.09
2022-12-03T04:34:11.583Z,102474.31
2022-12-03T04:36:38.776Z,102467.19
2022-12-03T04:39:05.225Z,102471.59
2022-12-03T04:41:31.583Z,102467.13
2022-12-03T04:44:16.351Z,102467.13
2022-12-03T04:46:42.755Z,102462.69
2022-12-03T04:49:09.159Z,102458.25
2022-12-03T04:51:35.684Z,102456.47
2022-12-03T04:54:02.108Z,102456.47
2022-12-03T04:56:28.471Z,102451.16
2022-12-03T04:58:54.815Z,102460.94
2022-12-03T05:01:21.225Z,102448.47
2022-12-03T05:03:47.612Z,102447.59
2022-12-03T05:06:14.024Z,102449.38
2022-12-03T05:08:40.407Z,102459.19
2022-12-03T05:11:06.802Z,102448.50
2022-12-03T05:13:33.155Z,102444.09
2022-12-03T05:15:59.531Z,102449.41
2022-12-03T05:18:25.895Z,102442.28
2022-12-03T05:20:53.639Z,102448.50
2022-12-03T05:23:20.681Z,102445.00
2022-12-03T05:25:47.192Z,102444.13
2022-12-03T05:28:13.571Z,102450.34
2022-12-03T05:30:40.251Z,102443.22
2022-12-03T05:33:06.696Z,102447.66
2022-12-03T05:35:33.163Z,102439.66
2022-12-03T05:37:59.596Z,102440.53
2022-12-03T05:40:26.034Z,102443.22
2022-12-03T05:42:56.722Z,102441.47
2022-12-03T05:45:31.263Z,102443.25
2022-12-03T05:47:58.825Z,102437.91
2022-12-03T05:50:28.039Z,102444.13
2022-12-03T05:52:54.653Z,102434.34
2022-12-03T05:55:21.417Z,102434.38
2022-12-03T05:57:47.967Z,102438.84
2022-12-03T06:00:17.528Z,102427.25
2022-12-03T06:02:44.425Z,102423.72
2022-12-03T06:05:12.305Z,102413.03
2022-12-03T06:07:39.099Z,102424.59
2022-12-03T06:10:08.344Z,102425.50
2022-12-03T06:12:34.808Z,102417.50
2022-12-03T06:15:01.247Z,102408.56
2022-12-03T06:17:27.803Z,102410.38
2022-12-03T06:19:54.215Z,102410.38
2022-12-03T06:22:41.927Z,102419.25
2022-12-03T06:25:09.050Z,102407.69
2022-12-03T06:27:35.427Z,102399.69
2022-12-03T06:30:02.300Z,102403.25
2022-12-03T06:32:28.738Z,102395.25
2022-12-03T06:34:55.481Z,102398.81
2022-12-03T06:37:22.106Z,102397.91
2022-12-03T06:39:48.496Z,102399.69
2022-12-03T06:42:14.934Z,102402.38
2022-12-03T06:44:41.293Z,102403.28
2022-12-03T06:47:07.643Z,102409.53
2022-12-03T06:49:34.114Z,102401.53
2022-12-03T06:52:00.556Z,102401.53
2022-12-03T06:54:26.984Z,102408.63
2022-12-03T06:56:53.432Z,102406.00
2022-12-03T06:59:19.811Z,102411.34
2022-12-03T07:01:46.274Z,102405.13
2022-12-03T07:04:12.764Z,102405.13
2022-12-03T07:06:39.179Z,102401.56
2022-12-03T07:09:05.708Z,102404.25
2022-12-03T07:11:32.126Z,102407.78
2022-12-03T07:14:05.581Z,102411.34
2022-12-03T07:16:32.894Z,102410.44
2022-12-03T07:18:59.435Z,102415.78
2022-12-03T07:21:25.859Z,102412.25
2022-12-03T07:23:52.296Z,102414.00
2022-12-03T07:26:19.262Z,102410.44
2022-12-03T07:28:46.670Z,102411.38
2022-12-03T07:31:13.118Z,102409.56
2022-12-03T07:33:39.562Z,102406.03
2022-12-03T07:36:06.279Z,102405.13
2022-12-03T07:38:32.680Z,102402.47
2022-12-03T07:40:59.075Z,102394.44
2022-12-03T07:43:25.627Z,102396.25
2022-12-03T07:45:52.180Z,102393.56
2022-12-03T07:48:18.559Z,102392.69
2022-12-03T07:50:45.050Z,102400.69
2022-12-03T07:53:11.410Z,102401.59
2022-12-03T07:55:37.843Z,102402.47
2022-12-03T07:58:04.304Z,102405.13
2022-12-03T08:00:30.740Z,102400.69
2022-12-03T08:02:57.223Z,102394.47
2022-12-03T08:05:23.579Z,102398.03
2022-12-03T08:07:50.244Z,102395.38
2022-12-03T08:10:16.815Z,102398.91
2022-12-03T08:12:43.321Z,102396.25
2022-12-03T08:15:11.703Z,102398.03
2022-12-03T08:17:40.328Z,102396.25
2022-12-03T08:20:21.634Z,102394.44
2022-12-03T08:22:50.484Z,102392.66
2022-12-03T08:25:27.263Z,102391.75
2022-12-03T08:27:59.977Z,102402.41
2022-12-03T08:30:26.428Z,102399.69
2022-12-03T08:32:53.629Z,102393.47
2022-12-03T08:35:26.623Z,102394.31
2022-12-03T08:38:01.672Z,102397.91
2022-12-03T08:40:40.740Z,102397.91
2022-12-03T08:43:28.256Z,102397.84
2022-12-03T08:45:56.765Z,102392.53
2022-12-03T08:48:34.003Z,102394.28
2022-12-03T08:51:04.605Z,102390.72
2022-12-03T08:53:33.699Z,102388.94
2022-12-03T08:56:03.196Z,102386.28
2022-12-03T08:58:46.234Z,102376.50
2022-12-03T09:01:12.653Z,102383.59
2022-12-03T09:03:50.086Z,102384.47
2022-12-03T09:06:16.767Z,102384.47
2022-12-03T09:08:43.212Z,102380.03
2022-12-03T09:11:09.579Z,102367.56
2022-12-03T09:13:36.048Z,102371.13
2022-12-03T09:16:02.450Z,102369.31
2022-12-03T09:18:28.860Z,102372.88
2022-12-03T09:20:56.436Z,102372.84
2022-12-03T09:23:23.346Z,102376.41
2022-12-03T09:25:49.749Z,102379.09
2022-12-03T09:28:16.180Z,102377.28
2022-12-03T09:30:42.637Z,102376.34
2022-12-03T09:33:10.488Z,102371.94
2022-12-03T09:35:36.871Z,102380.81
2022-12-03T09:38:03.251Z,102377.22
2022-12-03T09:40:29.634Z,102383.47
2022-12-03T09:42:58.632Z,102379.88
2022-12-03T09:45:25.331Z,102371.00
2022-12-03T09:47:51.930Z,102376.34
2022-12-03T09:50:26.979Z,102371.94
2022-12-03T09:52:56.843Z,102371.00
2022-12-03T09:55:26.148Z,102367.47
2022-12-03T09:57:53.903Z,102367.47
2022-12-03T10:00:26.128Z,102369.28
2022-12-03T10:02:56.332Z,102373.69
2022-12-03T10:05:23.648Z,102370.09
2022-12-03T10:07:51.543Z,102373.63
2022-12-03T10:10:23.434Z,102372.75
2022-12-03T10:12:53.228Z,102371.88
2022-12-03T10:15:22.945Z,102370.09
2022-12-03T10:17:51.742Z,102372.81
2022-12-03T10:20:21.006Z,102371.88
2022-12-03T10:22:48.783Z,102363.81
2022-12-03T10:25:18.874Z,102355.81
2022-12-03T10:28:25.974Z,102364.69
2022-12-03T10:30:56.380Z,102368.34
2022-12-03T10:33:29.543Z,102363.88
2022-12-03T10:35:55.930Z,102359.41
2022-12-03T10:38:23.187Z,102354.06
2022-12-03T10:40:50.046Z,102354.94
2022-12-03T10:43:19.273Z,102347.78
2022-12-03T10:45:47.370Z,102362.00
2022-12-03T10:48:14.947Z,102344.31
2022-12-03T10:50:53.332Z,102346.06
2022-12-03T10:53:23.144Z,102338.91
2022-12-03T10:55:51.720Z,102341.66
2022-12-03T10:58:25.673Z,102334.50
2022-12-03T11:00:55.041Z,102330.91
2022-12-03T11:03:26.744Z,102328.19
2022-12-03T11:05:55.511Z,102326.31
2022-12-03T11:08:34.730Z,102327.25
2022-12-03T11:11:02.689Z,102324.63
2022-12-03T11:13:35.020Z,102326.38
2022-12-03T11:16:03.129Z,102321.91
2022-12-03T11:18:35.744Z,102313.97
2022-12-03T11:21:02.052Z,102315.66
2022-12-03T11:23:46.781Z,102319.38
2022-12-03T11:26:18.921Z,102312.25
2022-12-03T11:28:45.701Z,102318.50
2022-12-03T11:31:34.062Z,102305.28
2022-12-03T11:34:18.539Z,102305.22
2022-12-03T11:37:09.940Z,102298.13
2022-12-03T11:39:51.756Z,102298.16
2022-12-03T11:42:27.553Z,102286.56
2022-12-03T11:45:06.100Z,102290.19
2022-12-03T11:47:43.152Z,102282.13
2022-12-03T11:50:48.316Z,102291.06
2022-12-03T11:53:20.104Z,102283.06
2022-12-03T11:56:04.170Z,102289.28
2022-12-03T11:58:31.190Z,102284.94
2022-12-03T12:01:00.528Z,102281.34
2022-12-03T12:03:35.636Z,102287.53
2022-12-03T12:06:18.311Z,102281.41
2022-12-03T12:08:50.948Z,102276.06
2022-12-03T12:11:26.869Z,102275.19
2022-12-03T12:13:56.264Z,102261.91
2022-12-03T12:16:42.535Z,102265.47
2022-12-03T12:19:27.858Z,102253.00
2022-12-03T12:21:55.039Z,102252.06
2022-12-03T12:24:28.532Z,102243.19
2022-12-03T12:26:56.162Z,102249.44
2022-12-03T12:29:22.582Z,102243.25
2022-12-03T12:31:53.923Z,102246.78
2022-12-03T12:34:20.608Z,102242.31
2022-12-03T12:36:47.043Z,102234.31
2022-12-03T12:39:15.372Z,102247.69
2022-12-03T12:41:42.761Z,102235.38
2022-12-03T12:44:11.035Z,102238.94
2022-12-03T12:46:47.618Z,102244.22
2022-12-03T12:49:15.402Z,102244.25
2022-12-03T12:51:46.732Z,102243.38
2022-12-03T12:54:15.196Z,102234.50
2022-12-03T12:56:44.834Z,102237.22
2022-12-03T12:59:14.181Z,102238.16
2022-12-03T13:01:43.794Z,102235.47
2022-12-03T13:04:19.167Z,102231.00
2022-12-03T13:06:47.812Z,102231.94
2022-12-03T13:09:22.860Z,102233.72
2022-12-03T13:12:01.047Z,102222.19
2022-12-03T13:14:33.032Z,102239.06
2022-12-03T13:17:01.395Z,102222.22
2022-12-03T13:19:30.643Z,102222.22
2022-12-03T13:22:00.547Z,102227.59
2022-12-03T13:24:35.836Z,102222.25
2022-12-03T13:27:21.631Z,102220.47
2022-12-03T13:30:16.123Z,102211.59
2022-12-03T13:32:43.239Z,102204.47
2022-12-03T13:35:09.592Z,102208.06
2022-12-03T13:37:37.299Z,102209.00
2022-12-03T13:40:25.071Z,102200.13
2022-12-03T13:42:53.022Z,102200.13
2022-12-03T13:45:19.364Z,102199.19
2022-12-03T13:47:48.591Z,102191.25
2022-12-03T13:50:37.431Z,102188.53
2022-12-03T13:53:19.390Z,102190.31
2022-12-03T13:55:47.971Z,102186.78
2022-12-03T13:58:14.335Z,102190.31
2022-12-03T14:00:40.752Z,102184.16
2022-12-03T14:03:07.242Z,102181.47
2022-12-03T14:05:33.592Z,102187.72
2022-12-03T14:08:02.308Z,102184.19
2022-12-03T14:10:29.714Z,102185.97
2022-12-03T14:12:56.830Z,102183.31
2022-12-03T14:15:24.776Z,102185.16
2022-12-03T14:17:51.127Z,102178.03
2022-12-03T14:20:18.364Z,102181.59
2022-12-03T14:22:45.202Z,102178.06
2022-12-03T14:25:11.883Z,102179.88
2022-12-03T14:27:38.283Z,102175.41
2022-12-03T14:30:05.475Z,102174.59
2022-12-03T14:32:31.967Z,102179.00
2022-12-03T14:34:58.299Z,102171.03
2022-12-03T14:37:24.717Z,102180.78
2022-12-03T14:39:51.251Z,102167.47
2022-12-03T14:42:18.314Z,102170.13
2022-12-03T14:44:49.697Z,102178.16
2022-12-03T14:47:18.729Z,102165.72
2022-12-03T14:49:45.325Z,102167.50
2022-12-03T14:52:12.697Z,102160.44
2022-12-03T14:54:42.128Z,102160.44
2022-12-03T14:57:09.794Z,102158.69
2022-12-03T14:59:36.165Z,102165.81
2022-12-03T15:02:02.759Z,102160.50
2022-12-03T15:04:29.197Z,102163.19
2022-12-03T15:06:55.695Z,102149.88
2022-12-03T15:09:22.049Z,102162.31
2022-12-03T15:11:48.527Z,102159.69
2022-12-03T15:14:15.345Z,102155.25
2022-12-03T15:16:41.760Z,102152.59
2022-12-03T15:19:08.227Z,102153.50
2022-12-03T15:21:35.012Z,102158.88
2022-12-03T15:24:02.871Z,102156.19
2022-12-03T15:26:29.723Z,102157.13
2022-12-03T15:28:56.074Z,102145.59
2022-12-03T15:31:22.502Z,102148.25
2022-12-03T15:33:48.899Z,102157.16
2022-12-03T15:36:15.456Z,102144.72
2022-12-03T15:38:41.924Z,102149.16
2022-12-03T15:41:28.884Z,102154.53
2022-12-03T15:43:57.697Z,102144.75
2022-12-03T15:46:24.853Z,102154.53
2022-12-03T15:48:51.716Z,102152.72
2022-12-03T15:51:18.141Z,102164.28
2022-12-03T15:53:44.634Z,102158.09
2022-12-03T15:56:12.078Z,102159.88
2022-12-03T15:58:39.941Z,102156.34
2022-12-03T16:01:07.619Z,102156.34
2022-12-03T16:03:34.260Z,102154.53
2022-12-03T16:06:00.740Z,102151.88
2022-12-03T16:08:27.244Z,102160.75
2022-12-03T16:10:53.681Z,102167.84
2022-12-03T16:13:20.091Z,102165.19
2022-12-03T16:15:46.511Z,102165.19
2022-12-03T16:18:12.916Z,102171.41
2022-12-03T16:20:39.263Z,102166.03
2022-12-03T16:23:05.707Z,102164.28
2022-12-03T16:25:32.133Z,102166.03
2022-12-03T16:27:58.479Z,102168.69
2022-12-03T16:30:24.871Z,102163.38
2022-12-03T16:32:51.713Z,102166.03
2022-12-03T16:35:18.200Z,102162.50
2022-12-03T16:37:44.614Z,102160.72
2022-12-03T16:40:11.480Z,102161.63
2022-12-03T16:42:37.859Z,102166.03
2022-12-03T16:45:04.551Z,102159.84
2022-12-03T16:47:34.129Z,102158.97
2022-12-03T16:50:07.641Z,102150.06
2022-12-03T16:52:34.992Z,102160.72
2022-12-03T16:55:01.651Z,102160.72
2022-12-03T16:57:33.478Z,102159.84
2022-12-03T17:00:00.807Z,102165.16
2022-12-03T17:02:27.678Z,102160.72
2022-12-03T17:04:54.322Z,102165.16
2022-12-03T17:07:20.660Z,102167.81
2022-12-03T17:09:47.122Z,102174.94
2022-12-03T17:12:13.488Z,102166.06
2022-12-03T17:14:39.938Z,102165.19
2022-12-03T17:17:06.304Z,102159.00
2022-12-03T17:19:32.714Z,102166.97
2022-12-03T17:21:59.778Z,102164.31
2022-12-03T17:24:26.220Z,102162.56
2022-12-03T17:26:52.621Z,102155.44
2022-12-03T17:29:19.190Z,102159.03
2022-12-03T17:31:45.732Z,102153.69
2022-12-03T17:34:12.142Z,102151.03
2022-12-03T17:36:38.543Z,102147.47
2022-12-03T17:39:04.908Z,102157.25
2022-12-03T17:41:31.332Z,102149.25
2022-12-03T17:43:57.760Z,102148.34
2022-12-03T17:46:24.210Z,102157.25
2022-12-03T17:48:50.670Z,102151.03
2022-12-03T17:51:19.195Z,102146.59
2022-12-03T17:53:45.559Z,102147.50
2022-12-03T17:56:12.164Z,102137.78
2022-12-03T17:58:38.583Z,102149.28
2022-12-03T18:01:05.714Z,102151.06
2022-12-03T18:03:32.267Z,102147.56
2022-12-03T18:05:58.717Z,102153.78
2022-12-03T18:08:25.132Z,102157.38
2022-12-03T18:10:51.498Z,102160.94
2022-12-03T18:13:17.965Z,102150.28
2022-12-03T18:15:44.471Z,102157.38
2022-12-03T18:18:11.189Z,102157.41
2022-12-03T18:20:37.943Z,102151.19
2022-12-03T18:23:05.066Z,102152.97
2022-12-03T18:25:31.627Z,102143.22
2022-12-03T18:27:58.052Z,102145.88
2022-12-03T18:30:24.554Z,102146.75
2022-12-03T18:32:50.973Z,102149.44
2022-12-03T18:35:18.056Z,102152.97
2022-12-03T18:37:44.572Z,102135.22
2022-12-03T18:40:23.636Z,102140.56
2022-12-03T18:42:50.074Z,102141.44
2022-12-03T18:45:16.817Z,102145.88
2022-12-03T18:47:43.565Z,102141.44
2022-12-03T18:50:10.940Z,102139.69
2022-12-03T18:52:37.646Z,102133.47
2022-12-03T18:55:05.647Z,102129.91
2022-12-03T18:57:32.069Z,102132.59
2022-12-03T18:59:58.644Z,102141.44
2022-12-03T19:03:01.223Z,102129.91
2022-12-03T19:05:11.680Z,102128.16
2022-12-03T19:07:38.254Z,102129.91
2022-12-03T19:10:05.375Z,102128.16
2022-12-03T19:12:33.002Z,102118.41
2022-12-03T19:14:59.373Z,102121.09
2022-12-03T19:17:27.105Z,102125.50
2022-12-03T19:19:54.356Z,102114.88
2022-12-03T19:22:21.276Z,102117.56
2022-12-03T19:24:47.717Z,102119.31
2022-12-03T19:27:14.338Z,102121.09
2022-12-03T19:29:41.488Z,102123.75
2022-12-03T19:32:08.851Z,102120.22
2022-12-03T19:34:35.356Z,102107.78
2022-12-03T19:37:01.763Z,102117.53
2022-12-03T19:39:28.138Z,102116.66
2022-12-03T19:41:54.509Z,102113.09
2022-12-03T19:44:20.955Z,102125.50
2022-12-03T19:46:49.459Z,102114.00
2022-12-03T19:49:18.449Z,102107.78
2022-12-03T19:51:45.056Z,102110.44
2022-12-03T19:54:11.639Z,102102.47
2022-12-03T19:56:38.192Z,102108.66
2022-12-03T19:59:05.318Z,102106.88
2022-12-03T20:01:34.324Z,102107.78
2022-12-03T20:04:03.033Z,102106.00
2022-12-03T20:06:32.119Z,102106.00
2022-12-03T20:09:01.363Z,102102.44
2022-12-03T20:11:31.110Z,102097.13
2022-12-03T20:13:59.971Z,102099.78
2022-12-03T20:16:27.692Z,102109.56
2022-12-03T20:18:59.776Z,102102.44
2022-12-03T20:21:28.348Z,102100.66
2022-12-03T20:23:54.802Z,102107.78
2022-12-03T20:26:22.178Z,102104.25
2022-12-03T20:28:49.068Z,102099.81
2022-12-03T20:31:18.746Z,102099.81
2022-12-03T20:33:47.809Z,102090.03
2022-12-03T20:36:16.133Z,102095.34
2022-12-03T20:38:42.855Z,102090.94
2022-12-03T20:41:11.819Z,102091.81
2022-12-03T20:43:38.625Z,102091.81
2022-12-03T20:46:11.428Z,102097.13
2022-12-03T20:48:38.662Z,102085.63
2022-12-03T20:51:07.000Z,102094.47
2022-12-03T20:53:34.253Z,102093.56
2022-12-03T20:56:02.034Z,102090.91
2022-12-03T20:58:29.626Z,102090.03
2022-12-03T21:01:09.100Z,102094.44
2022-12-03T21:03:38.889Z,102092.69
2022-12-03T21:06:05.851Z,102095.34
2022-12-03T21:08:41.191Z,102093.56
2022-12-03T21:11:20.745Z,102093.59
2022-12-03T21:13:47.909Z,102088.28
2022-12-03T21:16:18.405Z,102083.84
2022-12-03T21:18:45.341Z,102090.06
2022-12-03T21:21:13.410Z,102085.66
2022-12-03T21:23:39.772Z,102087.41
2022-12-03T21:26:17.638Z,102080.31
2022-12-03T21:28:50.461Z,102075.91
2022-12-03T21:31:20.197Z,102075.91
2022-12-03T21:33:46.789Z,102071.47
2022-12-03T21:36:15.829Z,102070.59
2022-12-03T21:38:44.732Z,102066.16
2022-12-03T21:41:12.228Z,102072.38
2022-12-03T21:43:38.680Z,102067.94
2022-12-03T21:47:11.891Z,102071.47
2022-12-03T21:48:56.029Z,102065.28
2022-12-03T21:51:22.474Z,102068.81
2022-12-03T21:53:48.964Z,102061.75
2022-12-03T21:56:17.473Z,102060.88
2022-12-03T21:58:44.970Z,102060.00
2022-12-03T22:01:11.967Z,102059.16
2022-12-03T22:03:38.476Z,102060.03
2022-12-03T22:06:05.001Z,102060.06
2022-12-03T22:08:31.390Z,102066.25
2022-12-03T22:10:57.801Z,102058.28
2022-12-03T22:13:24.144Z,102058.28
2022-12-03T22:15:50.590Z,102062.69
2022-12-03T22:18:17.073Z,102060.09
2022-12-03T22:20:43.507Z,102067.16
2022-12-03T22:23:09.935Z,102063.59
2022-12-03T22:25:36.307Z,102068.91
2022-12-03T22:28:02.756Z,102056.53
2022-12-03T22:30:29.210Z,102053.00
2022-12-03T22:32:55.595Z,102053.00
2022-12-03T22:35:22.036Z,102054.75
2022-12-03T22:37:48.455Z,102060.09
2022-12-03T22:40:15.136Z,102056.53
2022-12-03T22:42:45.119Z,102058.31
2022-12-03T22:45:14.268Z,102060.06
2022-12-03T22:47:40.643Z,102050.31
2022-12-03T22:50:07.913Z,102057.41
2022-12-03T22:52:34.322Z,102058.31
2022-12-03T22:55:00.774Z,102059.19
2022-12-03T22:57:27.155Z,102060.09
2022-12-03T22:59:53.811Z,102059.19
2022-12-03T23:02:20.542Z,102058.31
2022-12-03T23:04:46.948Z,102065.41
2022-12-03T23:07:13.346Z,102053.00
2022-12-03T23:09:39.741Z,102053.00
2022-12-03T23:12:07.416Z,102053.88
2022-12-03T23:14:33.897Z,102056.53
2022-12-03T23:17:00.306Z,102056.53
2022-12-03T23:19:27.084Z,102056.53
2022-12-03T23:21:53.486Z,102057.41
2022-12-03T23:24:19.836Z,102047.66
2022-12-03T23:26:46.215Z,102056.53
2022-12-03T23:29:12.621Z,102049.44
2022-12-03T23:31:39.067Z,102052.97
2022-12-03T23:34:05.668Z,102045.03
2022-12-03T23:36:33.117Z,102048.56
2022-12-03T23:38:59.808Z,102052.97
2022-12-03T23:41:26.396Z,102054.78
2022-12-03T23:43:53.104Z,102052.97
2022-12-03T23:46:22.190Z,102052.13
2022-12-03T23:48:49.189Z,102052.97
2022-12-03T23:51:19.142Z,102064.50
2022-12-03T23:53:46.315Z,102059.16
2022-12-03T23:56:15.547Z,102060.97
2022-12-03T23:58:42.596Z,102063.63
